Time;durP1;ratioP1;P1;durP2;ratioP2;P2;SDS_P1;SDS_P2;PMS_P1;PMS_P2;Temp;Humidity;BMP_temperature;BMP_pressure;BME280_temperature;BME280_humidity;BME280_pressure;Samples;Min_cycle;Max_cycle;Signal;HPM_P1;HPM_P2
2022/01/23 00:00:27;;;;;;;26.70;12.65;;;;;;;-3.50;82.66;99500.81;4769913;29;20138;-60
2022/01/23 00:02:59;;;;;;;40.20;18.85;;;;;;;-3.49;82.73;99506.91;4770198;29;20042;-59
2022/01/23 00:05:26;;;;;;;33.08;14.95;;;;;;;-3.46;82.11;99512.06;4769513;29;20051;-60
2022/01/23 00:07:52;;;;;;;34.17;18.05;;;;;;;-3.58;82.34;99512.28;4769643;29;20053;-67
2022/01/23 00:10:19;;;;;;;45.63;18.42;;;;;;;-3.62;83.11;99518.44;4769602;29;20055;-64
2022/01/23 00:12:50;;;;;;;31.42;15.90;;;;;;;-3.62;83.54;99519.31;4768562;29;20053;-60
2022/01/23 00:17:59;;;;;;;32.47;16.95;;;;;;;-3.54;82.76;99520.03;4770161;29;20099;-61
2022/01/23 00:20:24;;;;;;;31.20;15.52;;;;;;;-3.54;83.27;99524.38;4769327;29;20050;-65
2022/01/23 00:22:54;;;;;;;37.78;17.75;;;;;;;-3.55;83.33;99528.72;4750874;29;20382;-65
2022/01/23 00:30:50;;;;;;;42.23;18.17;;;;;;;-3.37;82.95;99544.03;4705807;30;20408;-63
2022/01/23 00:33:17;;;;;;;35.65;16.65;;;;;;;-3.44;82.76;99550.25;4704183;30;20302;-63
2022/01/23 00:35:45;;;;;;;41.85;20.13;;;;;;;-3.52;83.16;99552.13;4704761;30;20048;-63
2022/01/23 00:38:12;;;;;;;40.92;18.98;;;;;;;-3.56;83.49;99560.00;4705177;30;20047;-63
2022/01/23 00:40:38;;;;;;;33.45;17.15;;;;;;;-3.60;83.53;99556.59;4702403;30;20567;-65
2022/01/23 00:43:26;;;;;;;32.63;15.90;;;;;;;-3.48;83.47;99559.00;4690051;30;20049;-64
2022/01/23 00:45:57;;;;;;;30.00;17.42;;;;;;;-3.56;83.59;99571.28;4704575;30;20195;-64
2022/01/23 00:48:27;;;;;;;34.70;19.27;;;;;;;-3.64;82.84;99570.56;4704743;30;20044;-64
2022/01/23 00:50:53;;;;;;;27.67;15.18;;;;;;;-3.62;83.60;99563.59;4705843;30;20052;-64
2022/01/23 00:53:18;;;;;;;34.75;17.05;;;;;;;-3.64;83.50;99569.69;4691922;30;20508;-65
2022/01/23 00:55:45;;;;;;;25.75;13.23;;;;;;;-3.51;83.49;99559.06;4707889;30;20048;-63
2022/01/23 00:58:10;;;;;;;39.42;19.02;;;;;;;-3.60;82.88;99567.00;4708079;30;20067;-62
2022/01/23 01:00:38;;;;;;;33.92;16.02;;;;;;;-3.66;83.60;99567.13;4706866;30;20072;-64
2022/01/23 01:03:03;;;;;;;38.22;17.42;;;;;;;-3.72;83.81;99575.00;4706559;30;20419;-64
2022/01/23 01:05:28;;;;;;;19.52;10.98;;;;;;;-3.65;83.65;99579.25;4739525;29;20525;-64
2022/01/23 01:07:58;;;;;;;44.78;18.38;;;;;;;-3.65;83.44;99574.06;4771094;29;20517;-62
2022/01/23 01:10:31;;;;;;;34.20;15.20;;;;;;;-3.49;83.06;99579.84;4770041;29;20409;-64
2022/01/23 01:13:00;;;;;;;30.73;11.55;;;;;;;-3.55;83.09;99580.84;4768451;29;20038;-63
2022/01/23 01:15:53;;;;;;;40.70;18.10;;;;;;;-3.63;82.97;99600.09;4769790;29;20050;-63
2022/01/23 01:31:55;;;;;;;33.08;17.15;;;;;;;-3.85;83.39;99605.59;4765975;29;20046;-66
2022/01/23 01:35:03;;;;;;;35.35;18.80;;;;;;;-3.88;83.32;99600.44;4768501;29;20073;-65
2022/01/23 01:37:12;;;;;;;34.38;13.82;;;;;;;-3.60;83.47;99594.81;4748755;29;20085;-65
2022/01/23 01:39:37;;;;;;;34.47;16.13;;;;;;;-3.64;82.94;99600.97;4753745;29;20605;-64
2022/01/23 01:42:03;;;;;;;38.03;19.58;;;;;;;-3.80;83.07;99606.38;4771925;29;20046;-63
2022/01/23 01:44:30;;;;;;;32.72;16.85;;;;;;;-3.87;82.73;99609.97;4756041;29;20051;-63
2022/01/23 01:47:21;;;;;;;27.40;11.75;;;;;;;-3.86;83.45;99621.25;4686783;30;20528;-64
2022/01/23 01:49:51;;;;;;;38.30;17.85;;;;;;;-3.85;83.44;99620.38;4683769;30;20147;-63
2022/01/23 01:52:16;;;;;;;36.33;19.35;;;;;;;-3.88;83.35;99634.28;4683085;30;20147;-62
2022/01/23 01:54:41;;;;;;;29.90;13.32;;;;;;;-3.75;83.33;99629.78;4684443;30;20439;-65
2022/01/23 01:57:14;;;;;;;36.80;17.05;;;;;;;-3.76;83.22;99633.25;4683392;30;20048;-64
2022/01/23 02:08:31;;;;;;;38.50;20.05;;;;;;;-3.83;83.46;99668.06;4628738;30;20054;-64
2022/01/23 02:11:11;;;;;;;37.25;18.88;;;;;;;-3.87;83.41;99669.88;4630902;30;20062;-64
2022/01/23 02:13:55;;;;;;;33.05;17.75;;;;;;;-3.87;83.73;99671.59;4631974;30;20054;-67
2022/01/23 03:00:18;;;;;;;27.50;13.95;;;;;;;-3.89;82.83;99754.09;4680154;30;20539;-62
2022/01/23 03:03:04;;;;;;;28.50;15.00;;;;;;;-3.94;82.82;99755.88;4665435;30;20057;-62
2022/01/23 03:05:39;;;;;;;28.20;14.40;;;;;;;-3.95;83.29;99768.03;4679620;30;20114;-61
2022/01/23 03:11:06;;;;;;;29.42;13.43;;;;;;;-3.80;83.41;99777.41;4662558;30;20415;-60
2022/01/23 03:13:49;;;;;;;28.70;14.15;;;;;;;-3.81;83.36;99778.28;4662487;30;20062;-61
2022/01/23 03:24:50;;;;;;;20.73;11.82;;;;;;;-3.88;83.13;99795.75;4679736;30;20160;-61
2022/01/23 03:27:53;;;;;;;15.45;7.93;;;;;;;-3.78;83.96;99792.16;4666489;30;20061;-60
2022/01/23 03:30:23;;;;;;;24.48;14.07;;;;;;;-3.82;83.89;99795.66;4682295;30;20079;-59
2022/01/23 03:32:50;;;;;;;18.45;11.25;;;;;;;-3.64;83.62;99805.03;4682676;30;20101;-61
2022/01/23 03:35:16;;;;;;;23.17;12.55;;;;;;;-3.79;83.73;99811.28;4697234;30;20501;-60
2022/01/23 03:37:41;;;;;;;25.88;14.35;;;;;;;-3.81;83.17;99828.66;4682192;30;20049;-59
2022/01/23 03:40:06;;;;;;;24.80;13.35;;;;;;;-3.71;83.33;99827.66;4682505;30;20075;-61
2022/01/23 03:42:34;;;;;;;24.13;13.45;;;;;;;-3.74;84.03;99825.13;4682379;30;20060;-60
2022/01/23 03:48:02;;;;;;;30.95;15.85;;;;;;;-3.63;83.33;99844.97;4747568;30;20093;-63
2022/01/23 03:50:26;;;;;;;26.17;15.27;;;;;;;-3.71;83.90;99845.03;4751961;29;20055;-62
2022/01/23 03:52:53;;;;;;;29.40;14.60;;;;;;;-3.63;83.70;99842.38;4751725;29;20046;-62
2022/01/23 03:55:18;;;;;;;26.35;14.27;;;;;;;-3.72;83.94;99853.72;4751753;29;20047;-59
2022/01/23 03:57:43;;;;;;;25.08;14.75;;;;;;;-3.74;83.41;99858.13;4761092;29;20133;-61
2022/01/23 04:00:08;;;;;;;28.50;15.73;;;;;;;-3.60;83.78;99861.41;4736176;29;20047;-62
2022/01/23 04:02:39;;;;;;;28.55;15.25;;;;;;;-3.68;83.52;99865.84;4768530;29;20047;-60
2022/01/23 04:05:04;;;;;;;27.17;16.25;;;;;;;-3.72;83.58;99874.56;4767474;29;20862;-61
2022/01/23 04:07:31;;;;;;;31.25;17.33;;;;;;;-3.72;83.23;99874.56;4767286;29;20074;-61
2022/01/23 04:09:56;;;;;;;28.50;15.38;;;;;;;-3.72;83.24;99875.44;4767145;29;20047;-61
2022/01/23 04:14:52;;;;;;;34.03;16.20;;;;;;;-3.66;83.45;99890.16;4766941;29;20047;-63
2022/01/23 04:34:52;;;;;;;34.42;17.15;;;;;;;-3.60;82.20;99912.66;4700709;30;20406;-61
2022/01/23 05:01:01;;;;;;;33.88;18.50;;;;;;;-3.67;82.88;99961.38;4770974;29;20061;-63
2022/01/23 05:06:25;;;;;;;35.28;20.55;;;;;;;-3.64;83.09;99966.56;4771783;29;20489;-61
2022/01/23 05:09:11;;;;;;;33.42;18.40;;;;;;;-3.67;83.29;99966.59;4771747;29;20051;-62
2022/01/23 05:12:00;;;;;;;30.15;16.70;;;;;;;-3.65;83.25;99972.66;4770776;29;20058;-61
2022/01/23 05:14:39;;;;;;;35.80;19.88;;;;;;;-3.64;82.88;99976.97;4770823;29;20057;-63
2022/01/23 05:17:06;;;;;;;30.15;15.85;;;;;;;-3.66;83.28;99986.56;4771948;29;20046;-62
2022/01/23 05:19:32;;;;;;;27.08;15.32;;;;;;;-3.66;83.07;99994.38;4772055;29;20058;-62
2022/01/23 05:24:44;;;;;;;23.98;14.75;;;;;;;-3.59;82.53;100003.84;4771762;29;20057;-62
2022/01/23 11:54:36;;;;;;;32.50;17.20;;;;;;;-1.87;76.00;100546.16;4970885;24;20154;-64
2022/01/23 11:57:03;;;;;;;29.63;17.17;;;;;;;-1.88;76.24;100559.22;4753403;29;20081;-60
2022/01/23 11:59:42;;;;;;;30.23;16.88;;;;;;;-1.85;76.55;100552.25;4769527;29;20055;-63
2022/01/23 12:02:11;;;;;;;29.52;17.67;;;;;;;-1.85;76.21;100544.41;4769494;29;20096;-61
2022/01/23 12:04:36;;;;;;;34.40;18.35;;;;;;;-1.81;76.34;100545.25;4738189;29;20062;-61
2022/01/23 12:07:11;;;;;;;31.80;16.73;;;;;;;-1.77;76.47;100553.94;4769498;29;20051;-62
2022/01/23 12:09:39;;;;;;;33.25;17.90;;;;;;;-1.78;75.86;100558.28;4769526;29;20130;-61
2022/01/23 12:12:23;;;;;;;33.38;16.75;;;;;;;-1.76;76.03;100567.00;4769354;29;20049;-61
2022/01/23 12:17:17;;;;;;;32.45;18.00;;;;;;;-1.72;75.88;100575.69;4769299;29;20534;-61
2022/01/23 12:19:42;;;;;;;29.17;16.77;;;;;;;-1.74;76.08;100578.31;4769591;29;20054;-64
2022/01/23 12:22:28;;;;;;;36.40;18.25;;;;;;;-1.69;75.96;100586.97;4769409;29;20058;-63
2022/01/23 12:24:56;;;;;;;39.45;17.27;;;;;;;-1.72;76.12;100578.31;4752805;29;20042;-64
2022/01/23 12:27:27;;;;;;;32.17;17.20;;;;;;;-1.77;76.26;100575.69;4769230;29;20512;-63
2022/01/23 12:33:41;;;;;;;32.17;17.10;;;;;;;-1.92;76.42;100600.19;4769363;29;20513;-60
2022/01/23 12:36:16;;;;;;;33.13;18.20;;;;;;;-1.97;76.51;100594.13;4752965;29;20215;-61
2022/01/23 12:38:47;;;;;;;24.73;15.15;;;;;;;-2.05;76.55;100605.50;4769063;29;20108;-61
2022/01/23 12:41:15;;;;;;;24.75;15.27;;;;;;;-2.09;76.01;100604.63;4769057;29;20144;-63
2022/01/23 12:43:40;;;;;;;30.45;16.00;;;;;;;-2.12;75.76;100607.25;4769032;29;20054;-62
2022/01/23 12:46:16;;;;;;;29.45;16.10;;;;;;;-2.12;75.47;100612.47;4752808;29;20180;-63
2022/01/23 12:49:20;;;;;;;26.15;15.00;;;;;;;-2.05;75.73;100623.78;4759185;29;20498;-62
2022/01/23 12:51:51;;;;;;;27.13;15.57;;;;;;;-2.08;75.51;100623.78;4772562;29;20050;-62
2022/01/23 12:54:20;;;;;;;27.20;15.65;;;;;;;-2.09;75.24;100619.44;4756222;29;20077;-61
2022/01/23 12:56:49;;;;;;;28.55;15.50;;;;;;;-2.10;75.48;100618.56;4756334;29;20047;-62
2022/01/23 12:59:27;;;;;;;31.65;14.95;;;;;;;-2.09;75.68;100622.94;4772701;29;20605;-63
2022/01/23 13:02:00;;;;;;;30.05;15.77;;;;;;;-2.13;76.16;100628.16;4772253;29;20051;-63
2022/01/23 13:04:57;;;;;;;28.73;15.32;;;;;;;-2.11;76.36;100624.66;4772397;29;20486;-62
2022/01/23 13:07:33;;;;;;;27.23;15.52;;;;;;;-2.17;76.04;100629.06;4772228;29;20050;-61
2022/01/23 13:32:48;;;;;;;28.27;14.20;;;;;;;-2.62;76.96;100657.94;4755987;29;20050;-62
2022/01/23 13:34:52;;;;;;;24.83;14.32;;;;;;;-2.65;76.47;100668.38;4746314;29;20468;-62
2022/01/23 13:37:22;;;;;;;29.98;15.20;;;;;;;-2.67;77.53;100682.28;4741249;29;20096;-61
2022/01/23 13:39:58;;;;;;;26.67;15.23;;;;;;;-2.70;77.17;100680.53;4771955;29;20140;-65
2022/01/23 13:48:11;;;;;;;32.60;16.88;;;;;;;-2.67;79.04;100696.19;4764853;29;20423;-61
2022/01/23 13:51:31;;;;;;;33.88;17.08;;;;;;;-2.77;78.70;100698.81;4763240;29;20050;-64
2022/01/23 13:59:22;;;;;;;36.70;19.50;;;;;;;-2.98;80.03;100713.63;4788225;29;20066;-61
2022/01/23 14:01:56;;;;;;;39.15;18.83;;;;;;;-3.03;79.58;100722.28;4789462;29;20050;-61
2022/01/23 14:04:23;;;;;;;34.00;17.47;;;;;;;-3.16;80.17;100728.41;4785388;29;20522;-62
2022/01/23 14:06:49;;;;;;;36.22;18.42;;;;;;;-3.24;79.74;100722.28;4771388;29;20454;-62
2022/01/23 14:09:16;;;;;;;37.55;18.20;;;;;;;-3.22;80.90;100721.41;4771378;29;20051;-61
2022/01/23 14:11:46;;;;;;;34.10;17.83;;;;;;;-3.37;79.92;100729.19;4755512;29;20120;-63
2022/01/23 14:14:26;;;;;;;36.38;17.75;;;;;;;-3.45;79.99;100730.94;4755308;29;20134;-62
2022/01/23 14:16:54;;;;;;;31.35;16.92;;;;;;;-3.56;79.82;100733.50;4762526;29;20050;-61
2022/01/23 14:19:31;;;;;;;30.48;15.35;;;;;;;-3.63;79.93;100739.56;4779708;29;20053;-61
2022/01/23 14:22:01;;;;;;;30.92;15.88;;;;;;;-3.69;80.48;100743.00;4777137;29;20509;-62
2022/01/23 14:24:31;;;;;;;28.08;15.80;;;;;;;-3.76;80.12;100754.28;4778273;29;20527;-61
2022/01/23 14:27:03;;;;;;;22.40;13.45;;;;;;;-3.80;80.47;100754.25;4783643;29;20138;-62
2022/01/23 14:29:30;;;;;;;27.98;14.55;;;;;;;-3.84;80.19;100765.56;4788730;29;20057;-62
2022/01/23 14:32:19;;;;;;;25.52;14.50;;;;;;;-3.86;80.22;100770.75;4788989;29;20058;-66
2022/01/23 14:34:44;;;;;;;25.67;14.35;;;;;;;-3.91;80.11;100779.38;4788915;29;20061;-62
2022/01/23 14:37:09;;;;;;;27.05;15.60;;;;;;;-3.91;80.04;100780.25;4788678;29;20054;-67
2022/01/23 14:39:40;;;;;;;27.17;14.10;;;;;;;-3.86;79.99;100782.91;4788911;29;20110;-64
2022/01/23 14:42:20;;;;;;;28.30;15.65;;;;;;;-3.81;79.73;100786.38;4788452;29;20057;-72
2022/01/23 14:44:46;;;;;;;34.13;15.73;;;;;;;-3.79;79.89;100798.56;4772614;29;20046;-63
2022/01/23 14:47:12;;;;;;;26.35;14.40;;;;;;;-3.77;80.16;100803.78;4784163;29;20047;-65
2022/01/23 14:49:41;;;;;;;24.88;14.40;;;;;;;-3.73;79.87;100809.03;4770598;29;20057;-64
2022/01/23 14:52:10;;;;;;;23.83;13.55;;;;;;;-3.69;79.45;100817.72;4770273;29;20138;-65
2022/01/23 14:54:37;;;;;;;22.67;14.77;;;;;;;-3.65;79.82;100824.69;4770100;29;20526;-64
2022/01/23 14:57:12;;;;;;;28.88;15.82;;;;;;;-3.62;79.89;100842.09;4770467;29;20167;-63
2022/01/23 14:59:37;;;;;;;;;;;;;;;-3.51;79.73;100838.66;4770790;29;20061;-64
2022/01/23 15:02:07;;;;;;;29.92;14.35;;;;;;;-3.55;79.55;100842.09;4754708;29;20024;-66
2022/01/23 15:04:43;;;;;;;30.17;15.05;;;;;;;-3.53;79.14;100829.09;4770262;29;20518;-66
2022/01/23 15:07:14;;;;;;;35.95;15.02;;;;;;;-3.59;79.02;100844.69;4770318;29;20050;-64
2022/01/23 15:09:39;;;;;;;29.67;14.57;;;;;;;-3.60;79.05;100856.84;4770159;29;20145;-63
2022/01/23 15:12:06;;;;;;;25.38;14.98;;;;;;;-3.59;79.40;100860.31;4770451;29;20133;-63
2022/01/23 15:14:36;;;;;;;32.28;15.23;;;;;;;-3.62;78.51;100866.41;4770515;29;20081;-63
2022/01/23 15:17:02;;;;;;;29.23;15.02;;;;;;;-3.60;79.21;100863.78;4770178;29;20581;-64
2022/01/23 15:19:30;;;;;;;29.60;14.57;;;;;;;-3.56;78.63;100866.44;4770194;29;20506;-63
2022/01/23 15:21:55;;;;;;;28.08;14.02;;;;;;;-3.53;78.71;100871.66;4769940;29;20456;-64
2022/01/23 15:24:20;;;;;;;25.40;14.57;;;;;;;-3.49;78.85;100873.41;4770073;29;20047;-64
2022/01/23 15:26:46;;;;;;;30.10;15.00;;;;;;;-3.45;78.17;100883.00;4769888;29;20046;-63
2022/01/23 15:29:12;;;;;;;23.17;14.80;;;;;;;-3.38;78.39;100891.69;4769596;29;20050;-63
2022/01/23 15:31:38;;;;;;;35.85;18.60;;;;;;;-3.33;78.64;100897.81;4769714;29;20541;-63
2022/01/23 15:34:29;;;;;;;26.40;14.82;;;;;;;-3.28;78.29;100905.69;4770013;29;20601;-64
2022/01/23 15:36:55;;;;;;;25.73;14.55;;;;;;;-3.25;78.24;100903.06;4769827;29;20125;-63
2022/01/23 15:39:22;;;;;;;24.02;15.57;;;;;;;-3.20;78.28;100896.16;4769618;29;20142;-64
2022/01/23 15:41:47;;;;;;;29.90;16.88;;;;;;;-3.19;78.72;100896.16;4769259;29;20578;-63
2022/01/23 15:44:18;;;;;;;28.85;14.82;;;;;;;-3.17;78.95;100901.38;4769715;29;20054;-70
2022/01/23 15:46:46;;;;;;;28.98;15.32;;;;;;;-3.14;79.12;100906.59;4769220;29;20042;-62
2022/01/23 15:49:11;;;;;;;25.15;15.13;;;;;;;-3.12;79.12;100915.28;4769534;29;20485;-65
2022/01/23 15:51:38;;;;;;;29.13;16.15;;;;;;;-3.11;78.47;100917.91;4769608;29;20119;-64
2022/01/23 15:54:04;;;;;;;27.35;14.52;;;;;;;-3.10;78.77;100917.06;4750101;30;20063;-65
2022/01/23 15:56:31;;;;;;;28.98;15.40;;;;;;;-3.11;78.40;100928.34;4751669;30;20043;-63
2022/01/23 15:58:56;;;;;;;29.77;17.13;;;;;;;-3.11;78.48;100924.88;4751716;29;20124;-62
2022/01/23 16:01:22;;;;;;;30.25;16.00;;;;;;;-3.15;78.05;100931.78;4751692;30;20043;-63
2022/01/23 16:03:48;;;;;;;29.42;15.15;;;;;;;-3.17;77.91;100935.28;4751921;29;20047;-63
2022/01/23 16:06:14;;;;;;;34.67;18.20;;;;;;;-3.22;78.18;100940.47;4751604;30;20483;-62
2022/01/23 16:08:40;;;;;;;31.90;16.17;;;;;;;-3.24;77.61;100946.53;4750303;30;20055;-62
2022/01/23 16:11:08;;;;;;;29.35;15.98;;;;;;;-3.27;77.19;100938.72;4751816;29;20051;-65
2022/01/23 16:13:34;;;;;;;27.88;15.63;;;;;;;-3.25;77.74;100945.66;4751897;30;20571;-63
2022/01/23 16:16:00;;;;;;;29.48;15.75;;;;;;;-3.22;78.20;100952.63;4735760;30;20047;-63
2022/01/23 16:18:26;;;;;;;29.38;15.38;;;;;;;-3.19;78.47;100952.66;4750529;30;20071;-62
2022/01/23 16:20:52;;;;;;;29.23;16.13;;;;;;;-3.17;78.76;100954.41;4751783;30;20746;-62
2022/01/23 16:23:17;;;;;;;28.58;15.55;;;;;;;-3.15;78.29;100954.41;4753485;29;20521;-63
2022/01/23 16:25:43;;;;;;;28.70;15.10;;;;;;;-3.15;78.13;100957.00;4754868;29;20051;-63
2022/01/23 16:28:14;;;;;;;31.88;17.30;;;;;;;-3.12;77.48;100964.84;4762356;29;20126;-62
2022/01/23 16:31:12;;;;;;;29.85;14.55;;;;;;;-3.09;77.18;100957.94;4766656;29;20062;-64
2022/01/23 16:33:39;;;;;;;31.02;14.52;;;;;;;-3.13;77.29;100968.31;4712263;30;20234;-64
2022/01/23 16:36:06;;;;;;;29.20;14.07;;;;;;;-3.14;77.42;100972.66;4707777;30;20218;-64
2022/01/23 16:38:36;;;;;;;25.13;14.68;;;;;;;-3.14;77.21;100975.28;4679611;30;20059;-63
2022/01/23 16:41:03;;;;;;;27.10;14.73;;;;;;;-3.13;77.85;100976.16;4708361;30;20056;-63
2022/01/23 16:43:34;;;;;;;33.10;15.48;;;;;;;-3.12;78.52;100968.34;4690253;30;20062;-63
2022/01/23 16:46:02;;;;;;;26.38;14.20;;;;;;;-3.11;78.04;100979.63;4708988;30;20052;-63
2022/01/23 16:48:31;;;;;;;26.17;14.27;;;;;;;-3.10;78.25;100981.38;4708535;30;20091;-64
2022/01/23 16:51:01;;;;;;;26.55;15.77;;;;;;;-3.08;78.50;100988.38;4692281;30;20056;-63
2022/01/23 16:53:27;;;;;;;30.60;15.52;;;;;;;-3.06;78.13;100985.75;4706244;30;20578;-64
2022/01/23 16:55:56;;;;;;;34.70;15.77;;;;;;;-3.04;78.03;100999.66;4673515;30;20406;-64
2022/01/23 17:01:19;;;;;;;30.45;14.85;;;;;;;-3.02;78.79;101000.56;4672541;30;20423;-64
2022/01/23 17:03:44;;;;;;;26.48;13.93;;;;;;;-3.03;78.50;100996.19;4644252;30;20127;-64
2022/01/23 17:06:12;;;;;;;30.75;14.52;;;;;;;-3.03;78.67;101002.28;4675251;30;20053;-63
2022/01/23 17:08:40;;;;;;;32.35;16.02;;;;;;;-3.03;77.87;100988.38;4659472;30;20057;-63
2022/01/23 17:11:06;;;;;;;26.25;14.63;;;;;;;-3.03;78.67;100988.38;4712255;30;20142;-64
2022/01/23 17:13:31;;;;;;;28.67;14.32;;;;;;;-3.04;78.45;100997.06;4744722;30;20130;-62
2022/01/23 17:15:58;;;;;;;24.30;13.77;;;;;;;-3.07;77.45;101000.53;4728118;30;20453;-63
2022/01/23 17:18:30;;;;;;;29.50;15.68;;;;;;;-3.09;78.38;100994.44;4726540;30;20434;-62
2022/01/23 17:20:55;;;;;;;30.17;14.15;;;;;;;-3.10;78.23;100990.09;4713543;30;20039;-64
2022/01/23 17:23:21;;;;;;;27.17;14.05;;;;;;;-3.09;78.51;100985.75;4701937;30;20066;-64
2022/01/23 17:25:46;;;;;;;27.67;14.25;;;;;;;-3.11;77.93;100992.69;4714125;30;20084;-63
2022/01/23 17:28:12;;;;;;;28.88;15.65;;;;;;;-3.10;77.92;100997.03;4743986;30;20047;-63
2022/01/23 17:30:37;;;;;;;29.00;14.43;;;;;;;-3.11;78.56;100998.78;4743472;30;20054;-63
2022/01/23 17:33:04;;;;;;;23.50;13.90;;;;;;;-3.10;77.52;100997.91;4728992;30;20043;-63
2022/01/23 17:35:29;;;;;;;25.50;13.45;;;;;;;-3.10;77.14;100994.44;4742469;30;20058;-62
2022/01/23 17:37:57;;;;;;;26.17;14.77;;;;;;;-3.09;77.28;100996.19;4729407;30;20050;-64
2022/01/23 17:40:48;;;;;;;24.67;14.43;;;;;;;-3.06;77.20;100998.81;4744122;30;20047;-64
2022/01/23 17:43:17;;;;;;;24.60;13.70;;;;;;;-3.04;77.65;100990.09;4744029;30;20145;-63
2022/01/23 17:45:54;;;;;;;23.25;14.15;;;;;;;-3.02;77.51;100997.94;4743275;30;20035;-63
2022/01/23 17:51:02;;;;;;;20.88;12.75;;;;;;;-3.01;77.28;101008.38;4727387;30;20126;-63
2022/01/23 17:53:31;;;;;;;24.77;13.80;;;;;;;-3.02;77.30;101014.47;4729436;29;20051;-63
2022/01/23 17:56:03;;;;;;;31.42;14.32;;;;;;;-2.99;77.54;101014.50;4738007;30;20040;-63
2022/01/23 17:58:33;;;;;;;24.92;13.98;;;;;;;-2.96;77.68;101011.03;4719266;30;20108;-63
2022/01/23 18:01:04;;;;;;;22.63;13.43;;;;;;;-2.92;77.74;101007.56;4735537;30;20531;-64
2022/01/23 18:03:34;;;;;;;27.75;14.35;;;;;;;-2.92;77.48;101013.66;4719165;30;20449;-62
2022/01/23 18:06:01;;;;;;;26.67;14.82;;;;;;;-2.87;77.33;101013.69;4719279;30;20052;-64
2022/01/23 18:08:30;;;;;;;27.27;15.02;;;;;;;-2.86;77.46;101012.81;4719689;30;20051;-63
2022/01/23 18:10:58;;;;;;;28.33;16.55;;;;;;;-2.87;77.81;101016.28;4735526;30;20054;-63
2022/01/23 18:13:24;;;;;;;24.30;13.50;;;;;;;-2.87;77.81;101018.03;4735276;30;20039;-63
2022/01/23 18:15:55;;;;;;;30.83;14.55;;;;;;;-2.86;77.26;101012.81;4719061;30;20056;-63
2022/01/23 18:18:26;;;;;;;28.13;14.43;;;;;;;-2.87;78.32;101016.28;4734577;30;20526;-63
2022/01/23 18:20:55;;;;;;;21.95;13.18;;;;;;;-2.88;77.23;101019.75;4719657;30;20043;-64
2022/01/23 18:23:24;;;;;;;25.13;13.57;;;;;;;-2.89;77.36;101018.00;4704823;30;20052;-62
2022/01/23 18:25:51;;;;;;;26.98;14.35;;;;;;;-2.89;77.71;101018.00;4735207;30;20784;-62
2022/01/23 18:28:20;;;;;;;26.70;14.35;;;;;;;-2.88;77.56;101029.31;4734886;30;20047;-64
2022/01/23 18:30:45;;;;;;;27.15;14.57;;;;;;;-2.88;77.73;101024.97;4716983;30;20048;-64
2022/01/23 18:33:15;;;;;;;23.65;14.02;;;;;;;-2.87;78.33;101013.69;4735161;30;20056;-64
2022/01/23 18:36:06;;;;;;;27.13;13.75;;;;;;;-2.87;77.17;101015.41;4722773;30;20100;-64
2022/01/23 18:38:33;;;;;;;25.25;14.02;;;;;;;-2.89;78.03;101015.41;4735922;30;20062;-68
2022/01/23 18:41:01;;;;;;;25.40;13.35;;;;;;;-2.91;77.27;101019.75;4720382;30;20078;-68
2022/01/23 18:43:26;;;;;;;29.70;15.30;;;;;;;-2.90;78.15;101020.59;4735343;30;20078;-69
2022/01/23 18:45:55;;;;;;;26.75;14.60;;;;;;;-2.89;77.84;101012.78;4734954;30;20566;-68
2022/01/23 18:48:24;;;;;;;28.35;15.23;;;;;;;-2.93;77.96;101014.50;4704367;30;20056;-68
2022/01/23 18:50:56;;;;;;;27.27;14.88;;;;;;;-2.92;77.36;101018.00;4735249;30;20048;-69
2022/01/23 18:53:53;;;;;;;23.15;14.48;;;;;;;-2.94;77.66;101019.75;4741752;29;20113;-68
2022/01/23 18:56:21;;;;;;;20.90;12.57;;;;;;;-2.90;77.25;101023.22;4771100;29;20398;-68
2022/01/23 18:58:55;;;;;;;27.27;15.30;;;;;;;-2.90;77.34;101029.31;4770509;29;20050;-68
2022/01/23 19:01:25;;;;;;;27.83;16.35;;;;;;;-2.89;77.05;101012.78;4755188;29;20503;-68
2022/01/23 19:06:48;;;;;;;25.85;13.55;;;;;;;-2.88;77.28;101011.06;4754411;29;20553;-68
2022/01/23 19:09:20;;;;;;;33.15;15.23;;;;;;;-2.87;76.84;101016.28;4771061;29;20119;-67
2022/01/23 19:11:49;;;;;;;26.05;15.32;;;;;;;-2.87;77.16;101024.13;4770493;29;20570;-68
2022/01/23 19:14:17;;;;;;;28.35;14.93;;;;;;;-2.85;76.46;101025.00;4770724;29;20489;-70
2022/01/23 19:16:46;;;;;;;27.75;15.70;;;;;;;-2.81;77.09;101024.13;4754113;29;20042;-68
2022/01/23 19:19:14;;;;;;;26.48;15.15;;;;;;;-2.79;77.03;101030.25;4770954;29;20046;-68
2022/01/23 19:21:40;;;;;;;27.33;15.52;;;;;;;-2.77;76.74;101033.72;4770387;29;20047;-69
2022/01/23 19:26:56;;;;;;;31.90;15.60;;;;;;;-2.79;76.30;101035.47;4770098;29;20053;-68
2022/01/23 19:29:29;;;;;;;27.42;15.38;;;;;;;-2.82;76.22;101035.44;4735069;30;20051;-68
2022/01/23 19:31:56;;;;;;;23.98;13.27;;;;;;;-2.80;76.63;101036.31;4748227;30;20055;-69
2022/01/23 19:34:21;;;;;;;26.05;14.88;;;;;;;-2.84;76.72;101031.09;4734841;30;20066;-68
2022/01/23 19:36:47;;;;;;;28.42;15.73;;;;;;;-2.92;75.53;101039.75;4750007;30;20047;-66
2022/01/23 19:39:12;;;;;;;27.10;14.13;;;;;;;-2.97;75.97;101038.84;4749894;30;20137;-67
2022/01/23 19:41:49;;;;;;;24.75;14.93;;;;;;;-3.01;75.52;101046.66;4735922;29;20042;-67
2022/01/23 19:44:26;;;;;;;26.73;13.85;;;;;;;-3.09;75.87;101050.94;4768574;29;20124;-69
2022/01/23 19:47:07;;;;;;;27.70;13.93;;;;;;;-3.17;75.39;101047.44;4768234;29;20042;-67
2022/01/23 19:49:56;;;;;;;25.15;14.20;;;;;;;-3.22;75.33;101057.81;4768376;29;20116;-68
2022/01/23 19:52:23;;;;;;;21.50;13.57;;;;;;;-3.23;76.58;101068.22;4767744;29;20054;-68
2022/01/23 19:54:48;;;;;;;26.05;13.75;;;;;;;-3.25;76.11;101067.34;4767175;29;20076;-65
2022/01/23 19:57:16;;;;;;;26.40;14.02;;;;;;;-3.28;76.13;101064.75;4766989;29;20498;-67
2022/01/23 19:59:44;;;;;;;22.65;14.40;;;;;;;-3.30;75.73;101067.34;4739118;29;20107;-68
2022/01/23 20:02:12;;;;;;;24.05;15.20;;;;;;;-3.33;75.52;101068.19;4768281;29;20127;-67
2022/01/23 20:04:37;;;;;;;27.10;14.45;;;;;;;-3.36;75.43;101080.31;4771229;29;20398;-66
2022/01/23 20:07:03;;;;;;;25.00;14.27;;;;;;;-3.40;75.53;101082.03;4787561;29;20122;-66
2022/01/23 20:10:08;;;;;;;26.75;15.68;;;;;;;-3.37;76.68;101089.84;4771397;29;20422;-68
2022/01/23 20:12:44;;;;;;;35.25;17.13;;;;;;;-3.51;75.51;101078.47;4787977;29;20046;-70
2022/01/23 20:15:12;;;;;;;30.13;14.73;;;;;;;-3.60;76.38;101078.38;4771204;29;20387;-67
2022/01/23 20:17:40;;;;;;;27.23;13.98;;;;;;;-3.66;75.60;101093.97;4787552;29;20046;-68
2022/01/23 20:20:05;;;;;;;27.95;15.65;;;;;;;-3.71;75.80;101100.84;4787481;29;20078;-67
2022/01/23 20:22:34;;;;;;;29.35;15.45;;;;;;;-3.72;75.99;101091.28;4772187;29;20579;-68
2022/01/23 20:25:00;;;;;;;29.20;15.45;;;;;;;-3.71;76.63;101106.06;4787184;29;20108;-68
2022/01/23 20:27:27;;;;;;;24.58;14.27;;;;;;;-3.70;76.53;101105.19;4772775;29;20038;-70
2022/01/23 20:29:52;;;;;;;25.55;14.20;;;;;;;-3.68;76.51;101100.88;4769655;29;20129;-67
2022/01/23 20:32:17;;;;;;;26.92;15.32;;;;;;;-3.64;76.64;101117.44;4769612;29;20053;-69
2022/01/23 20:34:47;;;;;;;28.05;15.02;;;;;;;-3.61;76.62;101115.72;4753237;29;20150;-72
2022/01/23 20:37:15;;;;;;;27.88;14.55;;;;;;;-3.56;76.58;101118.38;4753193;29;20047;-73
2022/01/23 20:39:42;;;;;;;24.70;13.80;;;;;;;-3.51;76.72;101114.09;4753069;29;20047;-73
2022/01/23 20:42:10;;;;;;;29.17;16.48;;;;;;;-3.49;76.34;101113.22;4769115;29;20481;-68
2022/01/23 20:44:38;;;;;;;27.65;14.13;;;;;;;-3.47;76.01;101114.09;4769234;29;20130;-68
2022/01/23 20:47:03;;;;;;;27.08;14.27;;;;;;;-3.43;76.60;101115.03;4771737;29;20057;-66
2022/01/23 20:49:29;;;;;;;26.95;14.07;;;;;;;-3.42;76.31;101108.94;4726320;29;20107;-67
2022/01/23 20:51:59;;;;;;;31.98;15.93;;;;;;;-3.42;76.64;101102.00;4768574;29;20074;-66
2022/01/23 20:54:29;;;;;;;28.08;14.45;;;;;;;-3.40;76.47;101097.69;4751936;29;20154;-68
2022/01/23 20:56:59;;;;;;;22.58;14.35;;;;;;;-3.40;75.72;101100.28;4769622;29;20042;-66
2022/01/23 20:59:25;;;;;;;35.90;16.73;;;;;;;-3.40;75.57;101102.91;4769530;29;20395;-67
2022/01/23 21:01:50;;;;;;;28.23;15.80;;;;;;;-3.39;75.86;101109.84;4770216;29;20093;-67